sensor_id;sensor_type;location;lat;lon;timestamp;pressure;altitude;pressure_sealevel;temperature;humidity
49943;BME280;36011;53.362;58.948;2023-03-04T00:01:44;96047.59;;;-5.90;67.10
49943;BME280;36011;53.362;58.948;2023-03-04T00:04:48;96060.59;;;-6.02;67.07
49943;BME280;36011;53.362;58.948;2023-03-04T00:07:52;96061.72;;;-6.24;67.64
49943;BME280;36011;53.362;58.948;2023-03-04T00:10:53;96062.53;;;-6.21;67.34
49943;BME280;36011;53.362;58.948;2023-03-04T00:13:57;96067.81;;;-6.33;68.27
49943;BME280;36011;53.362;58.948;2023-03-04T00:16:59;96064.38;;;-6.32;67.87
49943;BME280;36011;53.362;58.948;2023-03-04T00:20:03;96071.00;;;-6.17;67.77
49943;BME280;36011;53.362;58.948;2023-03-04T00:23:05;96076.81;;;-6.00;67.76
49943;BME280;36011;53.362;58.948;2023-03-04T00:26:06;96079.28;;;-5.95;67.75
49943;BME280;36011;53.362;58.948;2023-03-04T00:29:15;96083.34;;;-5.82;66.85
49943;BME280;36011;53.362;58.948;2023-03-04T00:32:16;96083.88;;;-5.57;66.73
49943;BME280;36011;53.362;58.948;2023-03-04T00:35:21;96066.00;;;-5.63;65.80
49943;BME280;36011;53.362;58.948;2023-03-04T00:38:25;96073.19;;;-5.90;66.84
49943;BME280;36011;53.362;58.948;2023-03-04T00:41:26;96083.00;;;-6.19;66.93
49943;BME280;36011;53.362;58.948;2023-03-04T00:44:32;96072.09;;;-6.34;67.64
49943;BME280;36011;53.362;58.948;2023-03-04T00:47:36;96086.63;;;-6.37;67.90
49943;BME280;36011;53.362;58.948;2023-03-04T00:50:45;96092.50;;;-6.27;67.91
49943;BME280;36011;53.362;58.948;2023-03-04T00:53:47;96084.47;;;-6.00;67.69
49943;BME280;36011;53.362;58.948;2023-03-04T00:56:51;96079.94;;;-5.82;67.34
49943;BME280;36011;53.362;58.948;2023-03-04T00:59:52;96084.81;;;-5.64;66.07
49943;BME280;36011;53.362;58.948;2023-03-04T01:02:55;96083.31;;;-5.80;65.93
49943;BME280;36011;53.362;58.948;2023-03-04T01:06:00;96080.00;;;-5.85;66.52
49943;BME280;36011;53.362;58.948;2023-03-04T01:09:04;96075.88;;;-5.96;66.52
49943;BME280;36011;53.362;58.948;2023-03-04T01:12:05;96080.75;;;-5.77;66.08
49943;BME280;36011;53.362;58.948;2023-03-04T01:15:09;96072.97;;;-5.71;66.06
49943;BME280;36011;53.362;58.948;2023-03-04T01:18:13;96076.97;;;-5.53;65.75
49943;BME280;36011;53.362;58.948;2023-03-04T01:21:18;96075.19;;;-5.48;65.55
49943;BME280;36011;53.362;58.948;2023-03-04T01:24:19;96067.50;;;-5.48;65.37
49943;BME280;36011;53.362;58.948;2023-03-04T01:27:23;96071.00;;;-5.54;65.83
49943;BME280;36011;53.362;58.948;2023-03-04T01:30:30;96082.84;;;-5.47;65.52
49943;BME280;36011;53.362;58.948;2023-03-04T01:33:37;96081.91;;;-5.41;65.18
49943;BME280;36011;53.362;58.948;2023-03-04T01:36:38;96083.81;;;-5.55;65.02
49943;BME280;36011;53.362;58.948;2023-03-04T01:39:41;96082.97;;;-5.56;65.19
49943;BME280;36011;53.362;58.948;2023-03-04T01:42:42;96083.72;;;-5.49;65.00
49943;BME280;36011;53.362;58.948;2023-03-04T01:45:51;96088.94;;;-5.55;64.98
49943;BME280;36011;53.362;58.948;2023-03-04T01:48:58;96088.16;;;-5.59;65.31
49943;BME280;36011;53.362;58.948;2023-03-04T01:52:02;96095.16;;;-5.70;64.93
49943;BME280;36011;53.362;58.948;2023-03-04T01:55:10;96091.91;;;-5.84;65.92
49943;BME280;36011;53.362;58.948;2023-03-04T01:58:14;96102.47;;;-6.06;65.71
49943;BME280;36011;53.362;58.948;2023-03-04T02:01:18;96101.75;;;-6.14;66.42
49943;BME280;36011;53.362;58.948;2023-03-04T02:04:30;96110.06;;;-5.97;65.90
49943;BME280;36011;53.362;58.948;2023-03-04T02:07:35;96102.13;;;-5.81;66.21
49943;BME280;36011;53.362;58.948;2023-03-04T02:10:41;96104.63;;;-5.77;65.87
49943;BME280;36011;53.362;58.948;2023-03-04T02:14:08;96109.94;;;-5.92;65.91
49943;BME280;36011;53.362;58.948;2023-03-04T02:17:15;96120.91;;;-5.79;65.87
49943;BME280;36011;53.362;58.948;2023-03-04T02:26:52;96124.50;;;-5.32;65.36
49943;BME280;36011;53.362;58.948;2023-03-04T02:29:56;96123.47;;;-5.19;65.42
49943;BME280;36011;53.362;58.948;2023-03-04T02:33:00;96119.13;;;-5.15;64.57
49943;BME280;36011;53.362;58.948;2023-03-04T02:36:04;96116.66;;;-5.22;65.16
49943;BME280;36011;53.362;58.948;2023-03-04T02:39:21;96116.81;;;-5.32;65.63
49943;BME280;36011;53.362;58.948;2023-03-04T02:42:25;96115.16;;;-5.36;65.55
49943;BME280;36011;53.362;58.948;2023-03-04T02:48:33;96129.72;;;-5.37;65.36
49943;BME280;36011;53.362;58.948;2023-03-04T02:51:38;96121.81;;;-5.23;65.20
49943;BME280;36011;53.362;58.948;2023-03-04T02:54:42;96126.94;;;-5.23;65.17
49943;BME280;36011;53.362;58.948;2023-03-04T02:57:49;96122.56;;;-5.16;64.97
49943;BME280;36011;53.362;58.948;2023-03-04T03:00:53;96125.13;;;-5.18;65.09
49943;BME280;36011;53.362;58.948;2023-03-04T03:03:54;96128.53;;;-5.16;65.47
49943;BME280;36011;53.362;58.948;2023-03-04T03:07:01;96123.34;;;-5.13;64.74
49943;BME280;36011;53.362;58.948;2023-03-04T03:10:05;96114.22;;;-5.29;64.61
49943;BME280;36011;53.362;58.948;2023-03-04T03:13:12;96123.09;;;-5.55;65.90
49943;BME280;36011;53.362;58.948;2023-03-04T03:16:16;96139.19;;;-5.44;65.02
49943;BME280;36011;53.362;58.948;2023-03-04T03:19:19;96139.72;;;-5.83;65.52
49943;BME280;36011;53.362;58.948;2023-03-04T03:22:24;96138.06;;;-5.88;65.96
49943;BME280;36011;53.362;58.948;2023-03-04T03:25:31;96145.13;;;-6.02;66.51
49943;BME280;36011;53.362;58.948;2023-03-04T03:28:37;96146.66;;;-5.92;66.39
49943;BME280;36011;53.362;58.948;2023-03-04T03:31:43;96143.41;;;-6.03;66.62
49943;BME280;36011;53.362;58.948;2023-03-04T03:34:44;96151.56;;;-5.73;66.53
49943;BME280;36011;53.362;58.948;2023-03-04T03:37:50;96147.31;;;-5.74;66.04
49943;BME280;36011;53.362;58.948;2023-03-04T03:40:52;96148.19;;;-5.78;66.46
49943;BME280;36011;53.362;58.948;2023-03-04T03:43:55;96144.88;;;-5.87;66.73
49943;BME280;36011;53.362;58.948;2023-03-04T03:46:59;96140.34;;;-5.63;66.34
49943;BME280;36011;53.362;58.948;2023-03-04T03:50:03;96157.91;;;-5.38;66.49
49943;BME280;36011;53.362;58.948;2023-03-04T03:53:05;96157.78;;;-5.26;65.72
49943;BME280;36011;53.362;58.948;2023-03-04T03:56:09;96155.84;;;-5.12;65.64
49943;BME280;36011;53.362;58.948;2023-03-04T03:59:10;96145.44;;;-5.03;64.89
49943;BME280;36011;53.362;58.948;2023-03-04T04:02:14;96161.41;;;-4.85;64.97
49943;BME280;36011;53.362;58.948;2023-03-04T04:05:18;96157.97;;;-4.83;64.19
49943;BME280;36011;53.362;58.948;2023-03-04T04:08:21;96158.59;;;-4.70;64.47
49943;BME280;36011;53.362;58.948;2023-03-04T04:11:25;96161.63;;;-4.46;63.34
49943;BME280;36011;53.362;58.948;2023-03-04T04:14:28;96160.03;;;-4.54;63.72
49943;BME280;36011;53.362;58.948;2023-03-04T04:17:32;96167.44;;;-4.35;63.72
49943;BME280;36011;53.362;58.948;2023-03-04T04:20:36;96178.84;;;-4.05;63.10
49943;BME280;36011;53.362;58.948;2023-03-04T04:23:37;96170.75;;;-3.85;62.80
49943;BME280;36011;53.362;58.948;2023-03-04T04:26:41;96178.13;;;-3.67;63.24
49943;BME280;36011;53.362;58.948;2023-03-04T04:29:43;96170.59;;;-3.76;63.78
49943;BME280;36011;53.362;58.948;2023-03-04T04:32:50;96173.94;;;-3.71;64.77
49943;BME280;36011;53.362;58.948;2023-03-04T04:35:53;96179.44;;;-3.49;64.85
49943;BME280;36011;53.362;58.948;2023-03-04T04:38:55;96177.09;;;-3.59;65.63
49943;BME280;36011;53.362;58.948;2023-03-04T04:41:59;96197.00;;;-3.69;67.11
49943;BME280;36011;53.362;58.948;2023-03-04T04:45:04;96197.63;;;-3.56;67.06
49943;BME280;36011;53.362;58.948;2023-03-04T04:48:05;96207.16;;;-3.62;67.26
49943;BME280;36011;53.362;58.948;2023-03-04T04:51:06;96185.75;;;-3.64;67.58
49943;BME280;36011;53.362;58.948;2023-03-04T04:54:12;96188.25;;;-3.59;67.78
49943;BME280;36011;53.362;58.948;2023-03-04T04:57:17;96193.88;;;-3.42;67.50
49943;BME280;36011;53.362;58.948;2023-03-04T05:00:24;96197.78;;;-3.24;66.90
49943;BME280;36011;53.362;58.948;2023-03-04T05:03:28;96205.69;;;-2.92;66.44
49943;BME280;36011;53.362;58.948;2023-03-04T05:06:29;96198.69;;;-2.87;65.60
49943;BME280;36011;53.362;58.948;2023-03-04T05:09:33;96218.53;;;-2.91;65.80
49943;BME280;36011;53.362;58.948;2023-03-04T05:12:34;96204.84;;;-2.95;66.30
49943;BME280;36011;53.362;58.948;2023-03-04T05:15:37;96204.22;;;-3.03;66.84
49943;BME280;36011;53.362;58.948;2023-03-04T05:18:41;96201.19;;;-2.83;66.20
49943;BME280;36011;53.362;58.948;2023-03-04T05:21:45;96207.28;;;-2.87;66.78
49943;BME280;36011;53.362;58.948;2023-03-04T05:24:49;96225.28;;;-2.87;66.72
49943;BME280;36011;53.362;58.948;2023-03-04T05:27:51;96218.47;;;-2.88;67.18
49943;BME280;36011;53.362;58.948;2023-03-04T05:30:52;96222.63;;;-2.82;67.80
49943;BME280;36011;53.362;58.948;2023-03-04T05:33:54;96199.13;;;-2.68;67.75
49943;BME280;36011;53.362;58.948;2023-03-04T05:37:01;96220.66;;;-2.73;67.79
49943;BME280;36011;53.362;58.948;2023-03-04T05:40:03;96219.03;;;-2.39;67.28
49943;BME280;36011;53.362;58.948;2023-03-04T05:43:07;96210.22;;;-2.31;66.80
49943;BME280;36011;53.362;58.948;2023-03-04T05:46:13;96221.41;;;-1.97;66.63
49943;BME280;36011;53.362;58.948;2023-03-04T05:49:22;96209.19;;;-1.91;65.84
49943;BME280;36011;53.362;58.948;2023-03-04T05:52:26;96211.94;;;-1.64;65.54
49943;BME280;36011;53.362;58.948;2023-03-04T05:55:31;96215.44;;;-1.36;64.50
49943;BME280;36011;53.362;58.948;2023-03-04T05:58:37;96165.81;;;-1.45;63.79
49943;BME280;36011;53.362;58.948;2023-03-04T06:01:40;96215.34;;;-1.03;63.91
49943;BME280;36011;53.362;58.948;2023-03-04T06:04:44;96220.28;;;-0.40;62.06
49943;BME280;36011;53.362;58.948;2023-03-04T06:07:46;96208.63;;;-0.01;61.10
49943;BME280;36011;53.362;58.948;2023-03-04T06:10:51;96215.72;;;0.44;60.39
49943;BME280;36011;53.362;58.948;2023-03-04T06:13:58;96205.03;;;1.01;58.22
49943;BME280;36011;53.362;58.948;2023-03-04T06:17:02;96205.53;;;2.17;56.27
49943;BME280;36011;53.362;58.948;2023-03-04T06:20:04;96199.63;;;3.49;52.35
49943;BME280;36011;53.362;58.948;2023-03-04T06:23:10;96196.78;;;4.42;49.70
49943;BME280;36011;53.362;58.948;2023-03-04T06:26:16;96197.63;;;5.25;46.95
49943;BME280;36011;53.362;58.948;2023-03-04T06:29:19;96199.44;;;6.47;43.47
49943;BME280;36011;53.362;58.948;2023-03-04T06:32:21;96202.00;;;7.47;42.38
49943;BME280;36011;53.362;58.948;2023-03-04T06:35:29;96193.47;;;8.90;38.71
49943;BME280;36011;53.362;58.948;2023-03-04T06:38:30;96197.78;;;10.61;35.96
49943;BME280;36011;53.362;58.948;2023-03-04T06:41:32;96190.25;;;11.69;33.26
49943;BME280;36011;53.362;58.948;2023-03-04T06:44:34;96181.72;;;11.99;32.81
49943;BME280;36011;53.362;58.948;2023-03-04T06:47:38;96199.66;;;12.05;32.46
49943;BME280;36011;53.362;58.948;2023-03-04T06:50:45;96200.59;;;12.69;30.88
49943;BME280;36011;53.362;58.948;2023-03-04T06:53:47;96198.31;;;11.45;32.11
49943;BME280;36011;53.362;58.948;2023-03-04T06:56:50;96208.25;;;8.66;36.65
49943;BME280;36011;53.362;58.948;2023-03-04T06:59:52;96199.28;;;6.93;40.30
49943;BME280;36011;53.362;58.948;2023-03-04T07:03:00;96214.44;;;5.67;42.71
49943;BME280;36011;53.362;58.948;2023-03-04T07:06:04;96202.31;;;4.36;45.33
49943;BME280;36011;53.362;58.948;2023-03-04T07:09:08;96216.75;;;3.90;47.11
49943;BME280;36011;53.362;58.948;2023-03-04T07:12:09;96209.66;;;3.21;48.64
49943;BME280;36011;53.362;58.948;2023-03-04T07:15:15;96200.75;;;3.63;48.42
49943;BME280;36011;53.362;58.948;2023-03-04T07:18:16;96212.34;;;4.09;48.14
49943;BME280;36011;53.362;58.948;2023-03-04T07:21:20;96211.06;;;5.02;46.38
49943;BME280;36011;53.362;58.948;2023-03-04T07:24:24;96207.19;;;5.09;46.02
49943;BME280;36011;53.362;58.948;2023-03-04T07:27:25;96200.25;;;4.76;46.73
49943;BME280;36011;53.362;58.948;2023-03-04T07:30:27;96203.69;;;3.74;49.20
49943;BME280;36011;53.362;58.948;2023-03-04T07:33:28;96204.31;;;3.24;50.83
49943;BME280;36011;53.362;58.948;2023-03-04T07:36:36;96205.91;;;3.07;51.59
49943;BME280;36011;53.362;58.948;2023-03-04T07:39:38;96204.97;;;2.70;52.42
49943;BME280;36011;53.362;58.948;2023-03-04T07:42:41;96200.59;;;2.32;53.90
49943;BME280;36011;53.362;58.948;2023-03-04T07:45:43;96206.94;;;1.84;55.83
49943;BME280;36011;53.362;58.948;2023-03-04T07:48:49;96202.34;;;1.48;57.86
49943;BME280;36011;53.362;58.948;2023-03-04T07:51:56;96204.19;;;1.00;59.76
49943;BME280;36011;53.362;58.948;2023-03-04T07:55:02;96206.81;;;0.99;60.15
49943;BME280;36011;53.362;58.948;2023-03-04T07:58:06;96191.16;;;0.80;60.03
49943;BME280;36011;53.362;58.948;2023-03-04T08:01:12;96171.09;;;0.61;61.49
49943;BME280;36011;53.362;58.948;2023-03-04T08:04:16;96192.81;;;0.81;62.06
49943;BME280;36011;53.362;58.948;2023-03-04T08:07:22;96184.13;;;1.05;60.33
49943;BME280;36011;53.362;58.948;2023-03-04T08:10:23;96174.00;;;1.21;59.95
49943;BME280;36011;53.362;58.948;2023-03-04T08:13:25;96195.97;;;1.56;58.00
49943;BME280;36011;53.362;58.948;2023-03-04T08:16:26;96181.97;;;1.81;57.46
49943;BME280;36011;53.362;58.948;2023-03-04T08:19:31;96174.00;;;2.47;55.05
49943;BME280;36011;53.362;58.948;2023-03-04T08:22:35;96162.72;;;2.86;53.22
49943;BME280;36011;53.362;58.948;2023-03-04T08:25:40;96186.59;;;2.94;52.75
49943;BME280;36011;53.362;58.948;2023-03-04T08:28:45;96176.81;;;4.08;49.94
49943;BME280;36011;53.362;58.948;2023-03-04T08:31:48;96160.63;;;4.36;48.33
49943;BME280;36011;53.362;58.948;2023-03-04T08:34:54;96166.09;;;4.14;48.76
49943;BME280;36011;53.362;58.948;2023-03-04T08:37:57;96147.53;;;3.51;50.16
49943;BME280;36011;53.362;58.948;2023-03-04T08:41:00;96149.47;;;2.92;51.61
49943;BME280;36011;53.362;58.948;2023-03-04T08:44:04;96158.38;;;2.67;52.30
49943;BME280;36011;53.362;58.948;2023-03-04T08:47:08;96150.84;;;2.61;52.63
49943;BME280;36011;53.362;58.948;2023-03-04T08:50:16;96159.91;;;2.53;52.76
49943;BME280;36011;53.362;58.948;2023-03-04T08:53:20;96154.00;;;2.29;53.79
49943;BME280;36011;53.362;58.948;2023-03-04T08:56:21;96159.38;;;2.05;54.78
49943;BME280;36011;53.362;58.948;2023-03-04T08:59:25;96168.19;;;2.01;54.71
49943;BME280;36011;53.362;58.948;2023-03-04T09:02:34;96158.78;;;1.98;54.88
49943;BME280;36011;53.362;58.948;2023-03-04T09:05:35;96160.03;;;2.50;54.07
49943;BME280;36011;53.362;58.948;2023-03-04T09:08:36;96160.75;;;2.91;52.50
49943;BME280;36011;53.362;58.948;2023-03-04T09:11:40;96150.91;;;3.17;51.84
49943;BME280;36011;53.362;58.948;2023-03-04T09:14:41;96150.13;;;3.51;50.79
49943;BME280;36011;53.362;58.948;2023-03-04T09:17:45;96151.75;;;3.71;50.39
49943;BME280;36011;53.362;58.948;2023-03-04T09:20:54;96145.94;;;3.48;50.29
49943;BME280;36011;53.362;58.948;2023-03-04T09:23:56;96140.44;;;2.99;51.31
49943;BME280;36011;53.362;58.948;2023-03-04T09:27:04;96165.00;;;2.75;52.05
49943;BME280;36011;53.362;58.948;2023-03-04T09:30:08;96157.94;;;2.77;52.39
49943;BME280;36011;53.362;58.948;2023-03-04T09:33:10;96145.31;;;2.88;51.51
49943;BME280;36011;53.362;58.948;2023-03-04T09:36:13;96138.00;;;2.96;51.68
49943;BME280;36011;53.362;58.948;2023-03-04T09:39:17;96152.22;;;2.89;51.95
49943;BME280;36011;53.362;58.948;2023-03-04T09:42:26;96153.53;;;2.79;51.93
49943;BME280;36011;53.362;58.948;2023-03-04T09:45:36;96142.41;;;2.56;52.67
49943;BME280;36011;53.362;58.948;2023-03-04T09:48:46;96159.44;;;2.43;53.29
49943;BME280;36011;53.362;58.948;2023-03-04T09:52:00;96148.16;;;2.44;53.46
49943;BME280;36011;53.362;58.948;2023-03-04T09:58:20;96154.03;;;2.08;53.91
49943;BME280;36011;53.362;58.948;2023-03-04T10:01:54;96144.06;;;1.99;54.38
49943;BME280;36011;53.362;58.948;2023-03-04T10:05:01;96145.59;;;2.03;54.20
49943;BME280;36011;53.362;58.948;2023-03-04T10:11:58;96127.66;;;1.98;54.06
49943;BME280;36011;53.362;58.948;2023-03-04T10:15:13;96144.94;;;1.98;53.45
49943;BME280;36011;53.362;58.948;2023-03-04T10:18:38;96150.94;;;2.00;53.54
49943;BME280;36011;53.362;58.948;2023-03-04T10:21:49;96140.69;;;1.97;53.44
49943;BME280;36011;53.362;58.948;2023-03-04T10:25:00;96135.06;;;1.87;53.70
49943;BME280;36011;53.362;58.948;2023-03-04T10:28:13;96142.75;;;1.89;53.28
49943;BME280;36011;53.362;58.948;2023-03-04T10:31:20;96150.41;;;1.71;54.12
49943;BME280;36011;53.362;58.948;2023-03-04T10:34:25;96136.50;;;1.72;53.89
49943;BME280;36011;53.362;58.948;2023-03-04T10:37:45;96139.91;;;1.74;53.88
49943;BME280;36011;53.362;58.948;2023-03-04T10:40:49;96138.47;;;1.67;54.45
49943;BME280;36011;53.362;58.948;2023-03-04T10:47:09;96136.47;;;1.74;55.17
49943;BME280;36011;53.362;58.948;2023-03-04T10:50:22;96118.53;;;1.90;55.29
49943;BME280;36011;53.362;58.948;2023-03-04T10:53:32;96122.66;;;1.73;55.65
49943;BME280;36011;53.362;58.948;2023-03-04T10:56:41;96112.66;;;1.64;55.70
49943;BME280;36011;53.362;58.948;2023-03-04T10:59:55;96124.84;;;1.62;55.25
49943;BME280;36011;53.362;58.948;2023-03-04T11:06:30;96127.53;;;1.39;55.94
49943;BME280;36011;53.362;58.948;2023-03-04T11:09:35;96138.41;;;1.26;55.86
49943;BME280;36011;53.362;58.948;2023-03-04T11:12:40;96118.28;;;1.11;56.62
49943;BME280;36011;53.362;58.948;2023-03-04T11:15:58;96133.84;;;1.11;57.46
49943;BME280;36011;53.362;58.948;2023-03-04T11:19:10;96132.63;;;0.98;58.19
49943;BME280;36011;53.362;58.948;2023-03-04T11:22:19;96122.84;;;0.82;58.73
49943;BME280;36011;53.362;58.948;2023-03-04T11:25:35;96120.16;;;0.62;58.53
49943;BME280;36011;53.362;58.948;2023-03-04T11:32:19;96122.09;;;0.79;58.08
49943;BME280;36011;53.362;58.948;2023-03-04T11:35:29;96111.28;;;0.69;58.92
49943;BME280;36011;53.362;58.948;2023-03-04T11:38:48;96103.38;;;0.72;58.68
49943;BME280;36011;53.362;58.948;2023-03-04T11:42:04;96115.94;;;0.83;58.35
49943;BME280;36011;53.362;58.948;2023-03-04T11:55:37;96100.63;;;0.31;60.76
49943;BME280;36011;53.362;58.948;2023-03-04T12:05:19;96094.97;;;0.43;59.38
49943;BME280;36011;53.362;58.948;2023-03-04T12:21:49;96093.06;;;0.02;62.27
49943;BME280;36011;53.362;58.948;2023-03-04T12:28:17;96091.72;;;-0.34;63.75
49943;BME280;36011;53.362;58.948;2023-03-04T12:31:40;96080.63;;;-0.37;63.47
49943;BME280;36011;53.362;58.948;2023-03-04T12:35:30;96089.28;;;-0.38;63.46
49943;BME280;36011;53.362;58.948;2023-03-04T12:38:59;96073.56;;;-0.32;63.20
49943;BME280;36011;53.362;58.948;2023-03-04T12:42:28;96067.09;;;-0.46;64.25
49943;BME280;36011;53.362;58.948;2023-03-04T12:49:09;96058.31;;;-0.65;64.96
49943;BME280;36011;53.362;58.948;2023-03-04T12:55:39;96045.03;;;-1.06;65.43
49943;BME280;36011;53.362;58.948;2023-03-04T12:58:48;96032.75;;;-1.26;65.76
49943;BME280;36011;53.362;58.948;2023-03-04T13:09:30;96041.13;;;-1.46;66.75
49943;BME280;36011;53.362;58.948;2023-03-04T13:12:49;96045.88;;;-1.60;67.36
49943;BME280;36011;53.362;58.948;2023-03-04T13:16:03;96045.66;;;-1.54;67.26
49943;BME280;36011;53.362;58.948;2023-03-04T13:19:43;96036.91;;;-1.48;67.13
49943;BME280;36011;53.362;58.948;2023-03-04T13:23:26;96037.41;;;-1.65;67.56
49943;BME280;36011;53.362;58.948;2023-03-04T13:26:32;96025.69;;;-2.05;68.02
49943;BME280;36011;53.362;58.948;2023-03-04T13:29:37;96008.47;;;-2.03;68.57
49943;BME280;36011;53.362;58.948;2023-03-04T13:32:41;95998.50;;;-2.15;69.23
49943;BME280;36011;53.362;58.948;2023-03-04T13:42:54;96014.66;;;-2.40;70.60
49943;BME280;36011;53.362;58.948;2023-03-04T13:49:26;96015.56;;;-2.74;71.69
49943;BME280;36011;53.362;58.948;2023-03-04T13:52:39;96006.78;;;-2.66;71.74
49943;BME280;36011;53.362;58.948;2023-03-04T13:55:42;96014.59;;;-2.69;71.80
49943;BME280;36011;53.362;58.948;2023-03-04T13:58:44;96006.28;;;-2.79;72.01
49943;BME280;36011;53.362;58.948;2023-03-04T14:07:54;96006.47;;;-2.54;72.16
49943;BME280;36011;53.362;58.948;2023-03-04T14:10:58;96010.16;;;-2.64;72.20
49943;BME280;36011;53.362;58.948;2023-03-04T14:14:06;96018.25;;;-2.78;72.47
49943;BME280;36011;53.362;58.948;2023-03-04T14:17:19;96010.03;;;-2.91;73.09
49943;BME280;36011;53.362;58.948;2023-03-04T14:20:33;96016.97;;;-2.95;73.40
49943;BME280;36011;53.362;58.948;2023-03-04T14:23:36;96014.09;;;-2.84;73.72
49943;BME280;36011;53.362;58.948;2023-03-04T14:26:37;96007.53;;;-2.94;73.30
49943;BME280;36011;53.362;58.948;2023-03-04T14:29:41;96012.59;;;-2.91;73.58
49943;BME280;36011;53.362;58.948;2023-03-04T14:32:47;95994.31;;;-2.82;73.25
49943;BME280;36011;53.362;58.948;2023-03-04T14:35:58;95997.22;;;-2.61;72.84
49943;BME280;36011;53.362;58.948;2023-03-04T14:39:11;95995.53;;;-2.62;73.30
49943;BME280;36011;53.362;58.948;2023-03-04T14:42:16;96006.88;;;-2.69;73.76
49943;BME280;36011;53.362;58.948;2023-03-04T14:45:19;96000.03;;;-2.71;73.21
49943;BME280;36011;53.362;58.948;2023-03-04T14:48:29;95988.13;;;-2.75;73.11
49943;BME280;36011;53.362;58.948;2023-03-04T14:54:44;95983.59;;;-2.66;73.35
49943;BME280;36011;53.362;58.948;2023-03-04T14:58:15;95979.44;;;-2.71;73.18
49943;BME280;36011;53.362;58.948;2023-03-04T15:01:23;95971.16;;;-2.82;73.22
49943;BME280;36011;53.362;58.948;2023-03-04T15:04:33;95967.38;;;-2.68;73.13
49943;BME280;36011;53.362;58.948;2023-03-04T15:07:40;95966.13;;;-2.55;72.79
49943;BME280;36011;53.362;58.948;2023-03-04T15:10:58;95970.88;;;-2.40;72.42
49943;BME280;36011;53.362;58.948;2023-03-04T15:14:44;95963.88;;;-2.36;72.11
49943;BME280;36011;53.362;58.948;2023-03-04T15:17:59;95959.66;;;-2.39;71.47
49943;BME280;36011;53.362;58.948;2023-03-04T15:24:07;95948.16;;;-2.27;71.03
49943;BME280;36011;53.362;58.948;2023-03-04T15:27:11;95952.38;;;-2.24;71.23
49943;BME280;36011;53.362;58.948;2023-03-04T15:30:25;95951.41;;;-2.20;71.07
49943;BME280;36011;53.362;58.948;2023-03-04T15:33:28;95950.41;;;-2.16;70.71
49943;BME280;36011;53.362;58.948;2023-03-04T15:36:29;95930.84;;;-2.22;70.58
49943;BME280;36011;53.362;58.948;2023-03-04T15:39:31;95949.09;;;-2.30;70.97
49943;BME280;36011;53.362;58.948;2023-03-04T15:42:34;95947.59;;;-2.37;71.57
49943;BME280;36011;53.362;58.948;2023-03-04T15:45:40;95948.41;;;-2.35;71.94
49943;BME280;36011;53.362;58.948;2023-03-04T15:48:44;95932.31;;;-2.43;72.26
49943;BME280;36011;53.362;58.948;2023-03-04T15:51:48;95933.38;;;-2.50;72.80
49943;BME280;36011;53.362;58.948;2023-03-04T15:54:53;95934.53;;;-2.60;73.24
49943;BME280;36011;53.362;58.948;2023-03-04T15:57:59;95928.50;;;-2.61;73.25
49943;BME280;36011;53.362;58.948;2023-03-04T16:01:06;95917.81;;;-2.47;72.99
49943;BME280;36011;53.362;58.948;2023-03-04T16:04:14;95914.00;;;-2.63;73.81
49943;BME280;36011;53.362;58.948;2023-03-04T16:07:24;95922.53;;;-2.61;73.62
49943;BME280;36011;53.362;58.948;2023-03-04T16:10:32;95920.84;;;-2.62;73.35
49943;BME280;36011;53.362;58.948;2023-03-04T16:13:36;95917.81;;;-2.77;73.27
49943;BME280;36011;53.362;58.948;2023-03-04T16:16:41;95919.94;;;-2.91;73.99
49943;BME280;36011;53.362;58.948;2023-03-04T16:19:47;95921.88;;;-2.99;74.25
49943;BME280;36011;53.362;58.948;2023-03-04T16:22:56;95924.09;;;-2.87;73.57
49943;BME280;36011;53.362;58.948;2023-03-04T16:26:01;95912.75;;;-2.80;73.34
49943;BME280;36011;53.362;58.948;2023-03-04T16:29:04;95899.34;;;-2.91;73.43
49943;BME280;36011;53.362;58.948;2023-03-04T16:32:09;95905.72;;;-3.06;73.76
49943;BME280;36011;53.362;58.948;2023-03-04T16:35:15;95909.88;;;-3.00;73.29
49943;BME280;36011;53.362;58.948;2023-03-04T16:38:26;95892.66;;;-2.98;73.47
49943;BME280;36011;53.362;58.948;2023-03-04T16:41:32;95891.47;;;-3.18;74.02
49943;BME280;36011;53.362;58.948;2023-03-04T16:44:38;95902.47;;;-3.11;74.04
49943;BME280;36011;53.362;58.948;2023-03-04T16:47:42;95886.66;;;-3.30;74.27
49943;BME280;36011;53.362;58.948;2023-03-04T16:50:47;95903.94;;;-3.35;74.68
49943;BME280;36011;53.362;58.948;2023-03-04T16:53:51;95879.66;;;-3.25;74.46
49943;BME280;36011;53.362;58.948;2023-03-04T16:56:58;95878.28;;;-3.38;74.74
49943;BME280;36011;53.362;58.948;2023-03-04T17:00:01;95880.03;;;-3.40;74.57
49943;BME280;36011;53.362;58.948;2023-03-04T17:03:05;95871.22;;;-3.30;74.64
49943;BME280;36011;53.362;58.948;2023-03-04T17:06:11;95871.94;;;-3.57;74.78
49943;BME280;36011;53.362;58.948;2023-03-04T17:09:16;95877.91;;;-3.57;75.09
49943;BME280;36011;53.362;58.948;2023-03-04T17:12:21;95885.75;;;-3.62;75.52
49943;BME280;36011;53.362;58.948;2023-03-04T17:15:23;95871.16;;;-3.61;75.28
49943;BME280;36011;53.362;58.948;2023-03-04T17:18:29;95869.59;;;-3.67;75.12
49943;BME280;36011;53.362;58.948;2023-03-04T17:21:34;95864.56;;;-3.71;75.71
49943;BME280;36011;53.362;58.948;2023-03-04T17:24:38;95846.22;;;-3.57;75.37
49943;BME280;36011;53.362;58.948;2023-03-04T17:27:41;95849.41;;;-3.48;74.45
49943;BME280;36011;53.362;58.948;2023-03-04T17:30:46;95844.47;;;-3.55;74.83
49943;BME280;36011;53.362;58.948;2023-03-04T17:33:48;95857.16;;;-3.49;74.45
49943;BME280;36011;53.362;58.948;2023-03-04T17:36:54;95861.09;;;-3.36;74.10
49943;BME280;36011;53.362;58.948;2023-03-04T17:39:56;95856.34;;;-3.51;74.24
49943;BME280;36011;53.362;58.948;2023-03-04T17:43:02;95868.50;;;-3.58;74.62
49943;BME280;36011;53.362;58.948;2023-03-04T17:46:13;95865.28;;;-3.66;74.81
49943;BME280;36011;53.362;58.948;2023-03-04T17:49:18;95854.66;;;-3.52;74.91
49943;BME280;36011;53.362;58.948;2023-03-04T17:52:24;95861.88;;;-3.67;75.00
49943;BME280;36011;53.362;58.948;2023-03-04T17:55:28;95853.44;;;-3.72;75.11